Time;durP1;ratioP1;P1;durP2;ratioP2;P2;SDS_P1;SDS_P2;PMS_P1;PMS_P2;Temp;Humidity;BMP_temperature;BMP_pressure;BME280_temperature;BME280_humidity;BME280_pressure;Samples;Min_cycle;Max_cycle;Signal;HPM_P1;HPM_P2
2022/12/08 00:01:19;;;;;;;38.78;22.25;;;;;;;2.69;100.00;100849.34;4943955;28;20047;-77
2022/12/08 00:03:45;;;;;;;41.78;21.85;;;;;;;2.68;100.00;100850.28;4944408;28;20088;-82
2022/12/08 00:09:27;;;;;;;41.35;20.20;;;;;;;2.56;100.00;100849.34;4946075;28;20036;-78
2022/12/08 00:11:57;;;;;;;39.38;20.55;;;;;;;2.57;100.00;100839.94;4943992;28;20062;-79
2022/12/08 00:14:34;;;;;;;46.97;23.08;;;;;;;2.57;100.00;100833.06;4949588;28;20041;-77
2022/12/08 00:17:00;;;;;;;36.83;19.63;;;;;;;2.54;100.00;100830.72;4949798;28;20036;-78
2022/12/08 00:19:26;;;;;;;37.58;20.60;;;;;;;2.48;100.00;100826.00;4949592;28;20039;-79
2022/12/08 00:21:52;;;;;;;41.20;19.10;;;;;;;2.55;100.00;100824.69;4958381;28;20052;-80
2022/12/08 00:24:19;;;;;;;35.50;18.70;;;;;;;2.57;100.00;100817.72;4949013;28;20031;-78
2022/12/08 00:26:45;;;;;;;36.78;18.23;;;;;;;2.52;100.00;100815.47;4937814;28;20504;-81
2022/12/08 00:29:11;;;;;;;31.23;18.15;;;;;;;2.51;100.00;100810.44;4933421;28;20059;-78
2022/12/08 00:31:37;;;;;;;34.58;17.52;;;;;;;2.61;100.00;100808.09;4943264;28;20440;-77
2022/12/08 00:34:02;;;;;;;29.77;16.98;;;;;;;2.65;100.00;100810.31;4951332;28;20050;-80
2022/12/08 00:36:29;;;;;;;32.05;17.33;;;;;;;2.60;100.00;100803.88;4928096;28;20043;-80
2022/12/08 00:38:56;;;;;;;34.03;17.00;;;;;;;2.55;100.00;100805.94;4947383;28;20401;-78
2022/12/08 00:44:09;;;;;;;34.13;17.85;;;;;;;2.51;100.00;100805.34;4949765;28;20086;-81
2022/12/08 00:46:35;;;;;;;37.70;18.23;;;;;;;2.66;100.00;100798.34;4965761;28;20091;-78
2022/12/08 00:49:02;;;;;;;33.35;18.52;;;;;;;2.77;100.00;100797.59;4951201;28;20031;-80
2022/12/08 00:51:27;;;;;;;39.20;17.33;;;;;;;2.70;100.00;100790.34;4972236;28;20417;-78
2022/12/08 00:53:53;;;;;;;36.55;18.35;;;;;;;2.71;100.00;100786.03;4952687;28;20043;-79
2022/12/08 00:56:18;;;;;;;41.35;19.05;;;;;;;2.67;100.00;100782.06;4954090;28;20039;-77
2022/12/08 00:58:44;;;;;;;42.92;20.67;;;;;;;2.65;100.00;100787.28;4963908;28;20074;-77
2022/12/08 01:01:10;;;;;;;50.03;22.13;;;;;;;2.64;100.00;100787.41;4952719;28;20046;-77
2022/12/08 01:03:38;;;;;;;44.20;22.25;;;;;;;2.64;100.00;100790.78;4929372;29;20042;-78
2022/12/08 01:06:05;;;;;;;47.83;22.23;;;;;;;2.58;100.00;100783.53;4936491;28;20031;-78
2022/12/08 01:08:31;;;;;;;44.72;21.70;;;;;;;2.62;100.00;100792.63;4944194;28;20714;-80
2022/12/08 01:11:05;;;;;;;42.35;23.02;;;;;;;2.59;100.00;100786.88;4948284;28;20095;-81
2022/12/08 01:13:31;;;;;;;49.92;23.45;;;;;;;2.54;100.00;100792.31;4947479;28;20122;-80
2022/12/08 01:15:57;;;;;;;47.83;23.67;;;;;;;2.67;100.00;100794.84;4954973;28;20031;-77
2022/12/08 01:18:27;;;;;;;48.33;24.20;;;;;;;2.77;100.00;100793.31;4955764;28;20393;-78
2022/12/08 01:20:53;;;;;;;49.17;23.27;;;;;;;2.69;100.00;100790.44;4932039;29;20131;-78
2022/12/08 01:23:23;;;;;;;46.30;21.83;;;;;;;2.75;100.00;100794.31;4948146;28;20027;-78
2022/12/08 01:25:49;;;;;;;53.65;24.42;;;;;;;2.74;100.00;100780.72;4957268;28;20034;-78
2022/12/08 01:28:14;;;;;;;49.10;23.50;;;;;;;2.82;100.00;100786.13;4954617;28;20403;-79
2022/12/08 01:30:40;;;;;;;43.88;22.70;;;;;;;2.76;100.00;100778.06;4948483;28;20039;-78
2022/12/08 01:33:06;;;;;;;43.75;23.23;;;;;;;2.76;100.00;100783.19;4946371;28;20058;-79
2022/12/08 01:35:33;;;;;;;55.13;24.25;;;;;;;2.91;100.00;100782.91;4950257;28;20031;-80
2022/12/08 01:37:58;;;;;;;46.15;23.75;;;;;;;2.81;100.00;100781.94;4949637;28;20035;-78
2022/12/08 01:40:24;;;;;;;49.33;23.33;;;;;;;2.87;100.00;100778.94;4939031;28;20629;-78
2022/12/08 01:42:49;;;;;;;43.90;22.58;;;;;;;2.78;100.00;100776.19;4949527;28;20039;-79
2022/12/08 01:45:26;;;;;;;52.35;23.13;;;;;;;2.79;100.00;100780.38;4960296;28;20109;-78
2022/12/08 01:48:01;;;;;;;52.20;23.38;;;;;;;2.84;100.00;100778.34;4942656;28;20035;-79
2022/12/08 01:50:28;;;;;;;48.63;24.10;;;;;;;2.86;100.00;100779.88;4947933;28;20736;-80
2022/12/08 01:52:58;;;;;;;50.28;23.50;;;;;;;2.85;100.00;100777.41;4942049;28;20122;-79
2022/12/08 01:55:39;;;;;;;43.95;22.55;;;;;;;2.82;100.00;100773.31;4947875;28;20039;-76
2022/12/08 01:58:36;;;;;;;55.00;24.48;;;;;;;2.95;100.00;100772.47;4943606;28;20043;-79
2022/12/08 02:01:02;;;;;;;43.58;22.02;;;;;;;2.86;100.00;100763.66;4946262;28;20400;-78
2022/12/08 02:03:30;;;;;;;46.13;22.90;;;;;;;2.92;100.00;100769.19;4949396;28;20035;-79
2022/12/08 02:05:56;;;;;;;47.30;22.98;;;;;;;2.75;100.00;100768.72;4941260;28;20027;-78
2022/12/08 02:08:22;;;;;;;50.83;22.60;;;;;;;2.80;100.00;100761.53;4951320;28;20041;-78
2022/12/08 02:10:49;;;;;;;44.20;22.65;;;;;;;2.83;100.00;100763.91;4945765;28;20035;-79
2022/12/08 02:13:17;;;;;;;45.15;21.98;;;;;;;2.78;100.00;100755.72;4950714;28;20039;-77
2022/12/08 02:16:00;;;;;;;46.15;23.42;;;;;;;2.90;100.00;100762.53;4950662;28;20054;-78
2022/12/08 02:18:50;;;;;;;49.97;21.02;;;;;;;2.83;100.00;100751.91;4946029;28;20098;-77
2022/12/08 02:21:58;;;;;;;40.72;20.70;;;;;;;2.95;100.00;100751.97;4947024;28;20178;-80
2022/12/08 02:24:52;;;;;;;40.63;21.45;;;;;;;2.90;100.00;100745.44;4984224;28;20047;-77
2022/12/08 02:27:53;;;;;;;43.05;20.95;;;;;;;2.92;100.00;100741.03;4957298;28;20027;-80
2022/12/08 02:30:45;;;;;;;38.90;19.73;;;;;;;2.93;100.00;100734.16;4949438;28;20047;-78
2022/12/08 02:33:16;;;;;;;39.53;20.00;;;;;;;2.96;100.00;100730.53;4962569;28;20032;-79
2022/12/08 02:36:05;;;;;;;36.75;18.30;;;;;;;2.98;100.00;100728.72;4941372;28;20326;-78
2022/12/08 02:39:01;;;;;;;36.17;19.17;;;;;;;2.95;100.00;100732.28;4956286;28;20126;-80
2022/12/08 02:41:45;;;;;;;36.33;19.45;;;;;;;2.97;100.00;100716.81;4940687;28;20086;-79
2022/12/08 02:44:27;;;;;;;39.33;19.00;;;;;;;2.88;100.00;100721.69;4945086;28;20148;-79
2022/12/08 02:46:57;;;;;;;46.78;20.92;;;;;;;3.00;100.00;100716.63;4940698;28;20027;-78
2022/12/08 02:49:30;;;;;;;36.88;19.48;;;;;;;2.90;100.00;100712.13;4947227;28;20038;-79
2022/12/08 02:52:06;;;;;;;39.38;20.40;;;;;;;2.96;100.00;100708.31;4943262;28;20039;-78
2022/12/08 02:54:33;;;;;;;44.40;20.08;;;;;;;2.93;100.00;100711.91;4942809;28;20036;-80
2022/12/08 02:57:08;;;;;;;36.47;20.00;;;;;;;2.86;100.00;100709.88;4945009;28;20042;-77
2022/12/08 02:59:36;;;;;;;37.83;20.02;;;;;;;2.88;100.00;100698.63;4947535;28;20046;-79
2022/12/08 03:02:10;;;;;;;45.28;20.67;;;;;;;2.86;100.00;100691.94;4944534;28;20078;-78
2022/12/08 03:05:18;;;;;;;40.35;20.45;;;;;;;2.83;100.00;100695.56;4942153;28;20044;-78
2022/12/08 03:07:52;;;;;;;41.03;21.10;;;;;;;2.89;100.00;100696.88;4940205;28;20035;-79
2022/12/08 03:10:32;;;;;;;41.65;22.23;;;;;;;2.88;100.00;100690.94;4947089;28;20126;-81
2022/12/08 03:13:04;;;;;;;50.08;24.35;;;;;;;2.98;100.00;100690.28;4950240;28;20043;-77
2022/12/08 03:15:31;;;;;;;47.83;23.02;;;;;;;2.87;100.00;100680.78;4950186;28;20122;-79
2022/12/08 03:17:59;;;;;;;42.55;22.55;;;;;;;2.93;100.00;100681.16;4943134;28;20043;-78
2022/12/08 03:20:28;;;;;;;42.65;21.90;;;;;;;2.87;100.00;100673.94;4949971;28;20028;-77
2022/12/08 03:22:56;;;;;;;42.92;20.88;;;;;;;2.93;100.00;100676.03;4949528;28;20043;-79
2022/12/08 03:25:26;;;;;;;36.00;18.35;;;;;;;2.93;100.00;100670.91;4955498;28;20545;-79
2022/12/08 03:27:53;;;;;;;34.40;16.02;;;;;;;2.86;100.00;100666.34;4946013;28;20038;-81
2022/12/08 03:30:18;;;;;;;34.17;16.92;;;;;;;2.85;100.00;100670.66;4950519;28;20081;-79
2022/12/08 03:32:53;;;;;;;34.63;15.90;;;;;;;2.86;100.00;100664.63;4946228;28;20043;-77
2022/12/08 03:35:23;;;;;;;27.27;14.75;;;;;;;2.97;100.00;100658.72;4950594;28;20472;-79
2022/12/08 03:37:49;;;;;;;27.55;14.13;;;;;;;2.92;100.00;100658.25;4944734;28;20055;-78
2022/12/08 03:40:18;;;;;;;28.30;14.68;;;;;;;2.94;100.00;100661.50;4950737;28;20051;-79
2022/12/08 03:42:43;;;;;;;28.20;13.85;;;;;;;2.93;100.00;100652.97;4945402;28;20046;-79
2022/12/08 03:45:09;;;;;;;25.55;13.68;;;;;;;2.95;100.00;100652.06;4948927;28;20035;-78
2022/12/08 03:47:35;;;;;;;31.02;14.85;;;;;;;3.01;100.00;100644.75;4943726;28;20027;-82
2022/12/08 03:50:01;;;;;;;44.58;21.50;;;;;;;2.96;100.00;100635.75;4953827;28;20042;-77
2022/12/08 03:52:26;;;;;;;64.07;29.60;;;;;;;2.96;100.00;100633.19;4948639;28;20044;-81
2022/12/08 03:54:52;;;;;;;40.78;20.85;;;;;;;3.06;100.00;100629.88;4950532;28;20039;-76
2022/12/08 03:57:17;;;;;;;38.58;20.02;;;;;;;3.03;100.00;100634.41;4968376;28;20043;-78
2022/12/08 03:59:43;;;;;;;48.45;23.58;;;;;;;3.04;100.00;100633.47;4948782;28;20047;-77
2022/12/08 04:02:08;;;;;;;53.05;26.55;;;;;;;3.00;100.00;100634.63;4952451;28;20031;-77
2022/12/08 04:04:34;;;;;;;46.20;22.42;;;;;;;3.04;100.00;100638.59;4944383;28;20069;-78
2022/12/08 04:06:59;;;;;;;37.22;20.20;;;;;;;2.95;100.00;100634.13;4930027;28;20015;-77
2022/12/08 04:09:25;;;;;;;45.00;23.10;;;;;;;2.96;100.00;100634.03;4949596;28;20130;-78
2022/12/08 04:11:50;;;;;;;42.92;22.63;;;;;;;3.08;100.00;100622.88;4951493;28;20098;-77
2022/12/08 04:14:15;;;;;;;32.38;17.20;;;;;;;3.02;100.00;100628.47;4952565;28;20515;-80
2022/12/08 04:16:41;;;;;;;28.08;16.48;;;;;;;2.95;100.00;100619.56;4949070;28;20612;-77
2022/12/08 04:19:06;;;;;;;42.85;22.23;;;;;;;2.98;100.00;100614.25;4948367;28;20050;-83
2022/12/08 04:21:32;;;;;;;40.42;18.83;;;;;;;3.04;100.00;100612.97;4947535;28;20035;-81
2022/12/08 04:23:57;;;;;;;38.47;22.80;;;;;;;3.01;100.00;100615.75;4950168;28;20035;-79
2022/12/08 04:26:23;;;;;;;34.83;20.63;;;;;;;2.91;100.00;100616.41;4949989;28;20428;-78
2022/12/08 04:28:49;;;;;;;31.90;17.65;;;;;;;2.97;100.00;100606.66;4949993;28;20043;-79
2022/12/08 04:31:14;;;;;;;32.45;17.75;;;;;;;2.96;100.00;100608.41;4955163;28;20042;-80
2022/12/08 04:33:40;;;;;;;32.08;17.17;;;;;;;3.04;100.00;100603.53;4948936;28;20051;-77
2022/12/08 04:36:06;;;;;;;30.02;16.50;;;;;;;3.10;100.00;100604.84;4949197;28;20034;-78
2022/12/08 04:38:32;;;;;;;28.50;16.80;;;;;;;3.02;100.00;100602.84;4949030;28;20051;-78
2022/12/08 04:40:58;;;;;;;30.75;15.90;;;;;;;3.04;100.00;100597.59;4950831;28;20431;-79
2022/12/08 04:43:23;;;;;;;29.75;15.85;;;;;;;3.05;100.00;100599.22;4950933;28;20039;-78
2022/12/08 04:45:49;;;;;;;28.73;16.35;;;;;;;3.07;100.00;100597.38;4951552;28;20097;-79
2022/12/08 04:48:14;;;;;;;33.72;17.42;;;;;;;2.98;100.00;100605.75;4947310;28;20043;-77
2022/12/08 04:50:41;;;;;;;36.53;17.17;;;;;;;3.00;100.00;100601.34;4952343;28;20102;-79
2022/12/08 04:53:07;;;;;;;35.13;16.58;;;;;;;2.92;100.00;100602.69;4964577;28;20055;-77
2022/12/08 04:55:33;;;;;;;38.13;18.38;;;;;;;2.96;100.00;100598.16;4954207;28;20034;-78
2022/12/08 04:57:58;;;;;;;38.58;18.00;;;;;;;3.06;100.00;100596.56;4952886;28;20043;-78
2022/12/08 05:00:24;;;;;;;33.88;17.00;;;;;;;3.07;100.00;100594.81;4947587;28;20031;-78
2022/12/08 05:02:50;;;;;;;39.67;19.77;;;;;;;2.99;100.00;100595.38;4946200;28;20092;-78
2022/12/08 05:05:15;;;;;;;43.53;19.48;;;;;;;3.02;100.00;100586.66;4950492;28;20086;-77
2022/12/08 05:07:41;;;;;;;42.78;19.45;;;;;;;3.09;100.00;100598.09;4950143;28;20051;-79
2022/12/08 05:10:07;;;;;;;45.40;20.75;;;;;;;3.07;100.00;100595.66;4932973;28;20090;-78
2022/12/08 05:12:32;;;;;;;39.20;21.05;;;;;;;3.09;100.00;100592.97;4955672;28;20047;-77
2022/12/08 05:14:58;;;;;;;42.17;20.35;;;;;;;3.18;100.00;100589.72;4949070;28;20032;-80
2022/12/08 05:17:23;;;;;;;37.92;20.95;;;;;;;3.05;100.00;100588.97;4951930;28;20078;-78
2022/12/08 05:19:48;;;;;;;43.00;21.88;;;;;;;3.03;100.00;100588.28;4953083;28;20083;-82
2022/12/08 05:22:16;;;;;;;44.92;23.00;;;;;;;2.97;100.00;100592.09;4963780;28;20047;-78
2022/12/08 05:24:42;;;;;;;45.35;22.83;;;;;;;2.93;100.00;100594.06;4944624;28;20035;-79
2022/12/08 05:27:08;;;;;;;45.95;23.20;;;;;;;3.02;100.00;100596.91;4947240;28;20950;-77
2022/12/08 05:29:33;;;;;;;49.78;24.58;;;;;;;2.99;100.00;100597.94;4951396;28;20035;-79
2022/12/08 05:31:59;;;;;;;62.33;27.00;;;;;;;3.07;100.00;100599.94;4963962;28;20043;-80
2022/12/08 05:34:24;;;;;;;53.47;27.42;;;;;;;3.08;100.00;100601.56;4948188;28;20040;-82
2022/12/08 05:36:50;;;;;;;59.83;27.73;;;;;;;3.08;100.00;100593.88;4950649;28;20049;-77
2022/12/08 05:39:15;;;;;;;60.47;28.67;;;;;;;3.12;100.00;100585.84;4950239;28;20039;-79
2022/12/08 05:41:41;;;;;;;59.67;29.00;;;;;;;2.99;100.00;100581.75;4950396;28;20046;-81
2022/12/08 05:44:07;;;;;;;54.08;26.42;;;;;;;3.07;100.00;100584.56;4954680;28;20035;-81
2022/12/08 05:46:33;;;;;;;54.20;25.05;;;;;;;3.02;100.00;100581.53;4950929;28;20066;-77
2022/12/08 05:48:59;;;;;;;57.38;24.38;;;;;;;3.08;100.00;100579.31;4955611;28;20085;-79
2022/12/08 05:51:25;;;;;;;50.80;25.75;;;;;;;3.06;100.00;100578.63;4949765;28;20031;-79
2022/12/08 05:53:51;;;;;;;51.55;24.40;;;;;;;3.03;100.00;100578.03;4951760;28;20400;-78
2022/12/08 05:56:17;;;;;;;49.38;23.38;;;;;;;3.09;100.00;100582.72;4954226;28;20141;-77
2022/12/08 05:58:43;;;;;;;44.95;22.65;;;;;;;3.13;100.00;100579.00;4949005;28;20079;-78
2022/12/08 06:01:31;;;;;;;46.30;22.95;;;;;;;3.00;100.00;100570.59;4951999;28;20893;-78
2022/12/08 06:03:59;;;;;;;39.13;21.70;;;;;;;2.96;100.00;100570.00;4967130;28;20053;-78
2022/12/08 06:06:26;;;;;;;39.90;21.27;;;;;;;2.90;100.00;100565.28;4952283;28;20074;-79
2022/12/08 06:08:52;;;;;;;44.90;23.02;;;;;;;2.99;100.00;100572.31;4951613;28;20043;-78
2022/12/08 06:11:26;;;;;;;39.53;20.52;;;;;;;2.97;100.00;100570.81;4943690;28;20078;-77
2022/12/08 06:13:53;;;;;;;47.25;23.67;;;;;;;2.98;100.00;100567.31;4941911;28;20049;-78
2022/12/08 06:16:19;;;;;;;41.15;21.10;;;;;;;2.96;100.00;100564.03;4946292;28;20436;-79
2022/12/08 06:18:45;;;;;;;41.28;20.85;;;;;;;2.93;100.00;100567.66;4955361;28;20054;-78
2022/12/08 06:21:12;;;;;;;40.40;21.95;;;;;;;3.02;100.00;100563.59;4953547;28;20043;-79
2022/12/08 06:23:38;;;;;;;49.33;23.95;;;;;;;2.88;100.00;100564.59;4948729;28;20039;-78
2022/12/08 06:26:09;;;;;;;46.08;23.30;;;;;;;2.93;100.00;100565.09;4950353;28;20399;-77
2022/12/08 06:28:36;;;;;;;56.40;27.88;;;;;;;2.96;100.00;100570.00;4950480;28;20552;-79
2022/12/08 06:31:14;;;;;;;47.30;23.33;;;;;;;2.87;100.00;100563.78;4959008;28;20038;-80
2022/12/08 06:33:40;;;;;;;50.25;23.38;;;;;;;2.85;100.00;100569.97;4949045;28;21737;-78
2022/12/08 06:36:06;;;;;;;44.50;22.85;;;;;;;2.96;100.00;100570.00;4947191;28;20039;-78
2022/12/08 06:38:32;;;;;;;52.33;24.95;;;;;;;2.87;100.00;100576.59;4951310;28;20047;-78
2022/12/08 06:40:58;;;;;;;46.67;23.98;;;;;;;2.95;100.00;100572.66;4937673;28;20066;-80
2022/12/08 06:43:25;;;;;;;52.05;25.67;;;;;;;2.92;100.00;100571.97;4948194;28;20039;-78
2022/12/08 06:45:51;;;;;;;46.22;25.15;;;;;;;2.93;100.00;100572.78;4948401;28;20030;-78
2022/12/08 06:48:17;;;;;;;54.22;27.00;;;;;;;2.92;100.00;100568.59;4950723;28;20034;-78
2022/12/08 06:50:43;;;;;;;51.00;24.92;;;;;;;2.81;100.00;100564.25;4952678;28;20380;-78
2022/12/08 06:53:13;;;;;;;51.35;25.50;;;;;;;2.84;100.00;100566.56;4952437;28;20035;-78
2022/12/08 06:55:46;;;;;;;53.35;25.08;;;;;;;2.84;100.00;100569.13;4950496;28;20485;-79
2022/12/08 06:58:13;;;;;;;50.38;25.60;;;;;;;2.81;100.00;100577.03;4949974;28;20039;-79
2022/12/08 07:00:40;;;;;;;52.88;26.13;;;;;;;2.80;100.00;100575.41;4956474;28;20042;-81
2022/12/08 07:03:07;;;;;;;49.90;25.20;;;;;;;2.87;100.00;100579.16;4933202;28;20067;-79
2022/12/08 07:05:33;;;;;;;53.90;24.05;;;;;;;2.73;100.00;100582.72;4946910;28;20055;-77
2022/12/08 07:07:59;;;;;;;46.38;23.95;;;;;;;2.81;100.00;100579.59;4950045;28;20101;-77
2022/12/08 07:10:24;;;;;;;48.47;22.17;;;;;;;2.85;100.00;100581.00;4953255;28;20039;-79
2022/12/08 07:12:50;;;;;;;48.85;23.83;;;;;;;2.80;100.00;100577.97;4947851;28;20051;-78
2022/12/08 07:15:15;;;;;;;43.40;20.70;;;;;;;2.71;100.00;100576.91;4949201;28;20038;-77
2022/12/08 07:17:40;;;;;;;39.58;19.20;;;;;;;2.81;100.00;100582.16;4945169;28;20051;-79
2022/12/08 07:20:06;;;;;;;39.30;18.60;;;;;;;2.71;100.00;100587.13;4947637;28;20035;-79
2022/12/08 07:22:32;;;;;;;34.97;17.17;;;;;;;2.70;100.00;100587.25;4980324;28;20031;-78
2022/12/08 07:24:57;;;;;;;33.15;16.73;;;;;;;2.63;100.00;100586.84;4952151;28;20043;-79
2022/12/08 07:27:23;;;;;;;40.50;19.20;;;;;;;2.75;100.00;100589.47;4947473;28;20032;-78
2022/12/08 07:29:48;;;;;;;41.78;19.33;;;;;;;2.66;100.00;100586.66;4949206;28;20043;-80
2022/12/08 07:32:13;;;;;;;37.63;19.10;;;;;;;2.65;100.00;100590.13;4966436;28;20066;-79
2022/12/08 07:34:39;;;;;;;43.70;20.98;;;;;;;2.63;100.00;100584.28;4955359;28;20595;-80
2022/12/08 07:37:04;;;;;;;40.70;20.73;;;;;;;2.56;100.00;100579.72;4937866;28;20039;-78
2022/12/08 07:39:30;;;;;;;42.55;21.00;;;;;;;2.62;100.00;100576.72;4948819;28;20050;-78
2022/12/08 07:41:55;;;;;;;53.72;25.63;;;;;;;2.56;100.00;100582.28;4963359;28;20032;-79
2022/12/08 07:44:21;;;;;;;43.05;20.88;;;;;;;2.53;100.00;100579.03;4933782;28;20079;-78
2022/12/08 07:46:46;;;;;;;40.53;20.65;;;;;;;2.52;100.00;100582.53;4952407;28;20082;-78
2022/12/08 07:49:12;;;;;;;43.75;21.38;;;;;;;2.68;100.00;100583.97;4951714;28;20468;-78
2022/12/08 07:51:38;;;;;;;38.08;19.48;;;;;;;2.58;100.00;100588.09;4953814;28;20049;-79
2022/12/08 07:54:03;;;;;;;41.83;20.63;;;;;;;2.60;100.00;100591.38;4962936;28;20039;-77
2022/12/08 07:56:29;;;;;;;38.30;19.50;;;;;;;2.63;100.00;100580.94;4952313;28;20035;-78
2022/12/08 07:58:54;;;;;;;37.60;19.15;;;;;;;2.58;100.00;100578.72;4945493;28;20058;-79
2022/12/08 08:01:28;;;;;;;45.45;21.17;;;;;;;2.57;100.00;100577.06;4947657;28;20107;-78
2022/12/08 08:03:55;;;;;;;42.38;20.30;;;;;;;2.55;100.00;100578.91;4954035;28;20039;-77
2022/12/08 08:06:21;;;;;;;41.03;20.83;;;;;;;2.52;100.00;100582.53;4938883;28;20038;-79
2022/12/08 08:08:47;;;;;;;48.65;22.05;;;;;;;2.59;100.00;100582.06;4985317;28;20039;-78
2022/12/08 08:11:12;;;;;;;51.35;23.63;;;;;;;2.62;100.00;100590.34;4952016;28;20772;-78
2022/12/08 08:13:41;;;;;;;47.60;22.50;;;;;;;2.65;100.00;100584.19;4952454;28;20127;-77
2022/12/08 08:16:08;;;;;;;47.72;23.25;;;;;;;2.55;100.00;100586.59;4947822;28;20027;-78
2022/12/08 08:18:35;;;;;;;47.25;23.02;;;;;;;2.56;100.00;100585.66;4949025;28;20042;-79
2022/12/08 08:21:01;;;;;;;57.53;22.45;;;;;;;2.57;100.00;100583.94;4963658;28;20059;-79
2022/12/08 08:23:27;;;;;;;46.55;21.98;;;;;;;2.52;100.00;100579.13;4955634;28;20043;-78
2022/12/08 08:25:53;;;;;;;53.90;22.67;;;;;;;2.50;100.00;100579.22;4962504;28;20488;-78
2022/12/08 08:28:19;;;;;;;50.50;22.40;;;;;;;2.64;100.00;100578.25;4945309;28;20083;-80
2022/12/08 08:30:46;;;;;;;54.67;23.75;;;;;;;2.55;100.00;100580.66;4951948;28;20038;-82
2022/12/08 08:33:12;;;;;;;50.53;21.98;;;;;;;2.70;100.00;100584.69;4952121;28;20062;-79
2022/12/08 08:35:38;;;;;;;48.22;22.77;;;;;;;2.69;100.00;100577.91;4961369;28;20039;-82
2022/12/08 08:38:03;;;;;;;56.47;22.75;;;;;;;2.70;100.00;100582.13;4951283;28;20039;-78
2022/12/08 08:40:30;;;;;;;54.25;23.98;;;;;;;2.69;100.00;100588.16;4949494;28;20031;-77
2022/12/08 08:42:55;;;;;;;49.53;21.75;;;;;;;2.79;100.00;100583.19;4947464;28;20040;-80
2022/12/08 08:45:21;;;;;;;48.80;22.23;;;;;;;2.80;100.00;100592.50;4940955;28;20062;-79
2022/12/08 08:47:46;;;;;;;44.45;20.67;;;;;;;2.67;100.00;100587.44;4964187;28;20122;-77
2022/12/08 08:50:12;;;;;;;43.35;20.35;;;;;;;2.64;100.00;100582.56;4945487;28;20042;-78
2022/12/08 08:52:37;;;;;;;44.83;20.50;;;;;;;2.67;100.00;100577.22;4951925;28;20042;-79
2022/12/08 08:55:03;;;;;;;51.88;21.65;;;;;;;2.77;100.00;100585.03;4949308;28;20094;-78
2022/12/08 08:57:28;;;;;;;42.70;18.48;;;;;;;2.66;100.00;100578.16;4948184;28;20090;-79
2022/12/08 08:59:54;;;;;;;41.50;19.90;;;;;;;2.64;100.00;100578.25;4943856;28;20039;-78
2022/12/08 09:02:20;;;;;;;46.45;19.65;;;;;;;2.69;100.00;100585.59;4942790;28;20032;-79
2022/12/08 09:04:45;;;;;;;46.38;18.92;;;;;;;2.71;100.00;100578.63;4964586;28;20487;-78
2022/12/08 09:07:12;;;;;;;39.92;19.85;;;;;;;2.68;100.00;100581.41;4954246;28;20038;-78
2022/12/08 09:09:38;;;;;;;39.28;18.02;;;;;;;2.68;100.00;100578.84;4944754;28;20052;-78
2022/12/08 09:12:04;;;;;;;39.85;18.15;;;;;;;2.67;100.00;100583.13;4947686;28;20043;-78
2022/12/08 09:14:29;;;;;;;38.08;17.77;;;;;;;2.69;100.00;100581.31;4946685;28;20043;-78
2022/12/08 09:16:55;;;;;;;39.35;17.65;;;;;;;2.71;100.00;100581.19;4948550;28;20125;-80
2022/12/08 09:19:20;;;;;;;38.25;16.50;;;;;;;2.68;100.00;100573.75;4931217;28;20042;-78
2022/12/08 09:21:46;;;;;;;39.40;17.65;;;;;;;2.77;100.00;100579.91;4945899;28;20499;-78
2022/12/08 09:24:14;;;;;;;38.28;17.70;;;;;;;2.69;100.00;100578.75;4942369;28;20043;-78
2022/12/08 09:26:42;;;;;;;36.95;17.48;;;;;;;2.67;100.00;100587.44;4958615;28;20048;-78
2022/12/08 09:29:09;;;;;;;37.55;17.45;;;;;;;2.76;100.00;100581.69;4945553;28;20176;-78
2022/12/08 09:31:34;;;;;;;42.55;18.73;;;;;;;2.78;100.00;100579.00;4951984;28;20039;-77
2022/12/08 09:34:00;;;;;;;34.30;15.30;;;;;;;2.68;100.00;100589.91;4954550;28;20167;-78
2022/12/08 09:36:26;;;;;;;36.78;18.15;;;;;;;2.70;100.00;100582.13;4949534;28;20169;-79
2022/12/08 09:38:53;;;;;;;40.05;17.73;;;;;;;2.71;100.00;100587.13;4953777;28;20059;-78
2022/12/08 09:41:44;;;;;;;36.53;17.25;;;;;;;2.91;100.00;100577.19;4963356;28;20032;-76
2022/12/08 09:44:34;;;;;;;35.33;15.98;;;;;;;2.89;100.00;100579.06;4939919;28;20652;-77
2022/12/08 09:47:04;;;;;;;34.65;15.93;;;;;;;2.82;100.00;100576.09;4949997;28;20055;-79
2022/12/08 09:49:38;;;;;;;33.90;16.27;;;;;;;2.81;100.00;100569.38;4943630;28;20538;-78
2022/12/08 09:52:10;;;;;;;40.50;16.27;;;;;;;2.98;100.00;100580.94;4949421;28;20031;-77
2022/12/08 09:54:36;;;;;;;29.65;14.77;;;;;;;2.98;100.00;100575.00;4949865;28;20043;-78
2022/12/08 09:57:09;;;;;;;33.78;14.43;;;;;;;2.98;100.00;100573.25;4956564;28;20392;-78
2022/12/08 09:59:35;;;;;;;33.50;15.32;;;;;;;2.91;100.00;100569.50;4960501;28;20115;-79
2022/12/08 10:02:02;;;;;;;31.27;14.77;;;;;;;3.00;100.00;100568.03;4961081;28;20154;-79
2022/12/08 10:04:31;;;;;;;29.70;14.73;;;;;;;3.07;100.00;100567.47;4948745;28;20095;-78
2022/12/08 10:07:12;;;;;;;36.38;15.18;;;;;;;3.08;100.00;100565.72;4949127;28;20632;-78
2022/12/08 10:09:40;;;;;;;34.28;15.30;;;;;;;3.05;100.00;100560.81;4947765;28;20047;-77
2022/12/08 10:12:20;;;;;;;32.08;15.35;;;;;;;2.96;100.00;100558.91;4947924;28;20034;-77
2022/12/08 10:14:52;;;;;;;37.90;15.02;;;;;;;2.95;100.00;100558.09;4947653;28;20051;-80
2022/12/08 10:17:26;;;;;;;36.60;15.23;;;;;;;3.05;100.00;100559.06;4951518;28;20095;-78
2022/12/08 10:20:11;;;;;;;32.28;16.88;;;;;;;2.99;100.00;100562.06;4949289;28;20072;-79
2022/12/08 10:22:36;;;;;;;31.80;14.50;;;;;;;3.07;100.00;100561.50;4964038;28;20073;-77
2022/12/08 10:25:04;;;;;;;32.83;15.70;;;;;;;3.02;100.00;100559.28;4965482;28;20059;-77
2022/12/08 10:27:35;;;;;;;41.95;17.30;;;;;;;3.05;100.00;100553.09;4947638;28;20039;-78
2022/12/08 10:30:01;;;;;;;39.55;16.42;;;;;;;3.12;100.00;100554.28;4981982;28;20126;-78
2022/12/08 10:32:33;;;;;;;35.75;16.75;;;;;;;3.20;100.00;100548.59;4950071;28;20130;-77
2022/12/08 10:35:11;;;;;;;37.80;16.80;;;;;;;3.21;100.00;100547.69;4964378;28;20023;-76
2022/12/08 10:37:37;;;;;;;39.35;16.33;;;;;;;3.21;100.00;100553.63;4946323;28;20040;-81
2022/12/08 10:40:15;;;;;;;37.05;17.40;;;;;;;3.38;100.00;100542.09;4943155;28;20073;-78
2022/12/08 10:42:48;;;;;;;32.08;16.05;;;;;;;3.41;100.00;100536.75;4952584;28;20042;-80
2022/12/08 10:45:29;;;;;;;32.80;17.27;;;;;;;3.41;100.00;100535.91;4950758;28;20685;-80
2022/12/08 10:48:14;;;;;;;35.45;15.57;;;;;;;3.44;100.00;100543.38;4950064;28;20042;-79
2022/12/08 10:50:58;;;;;;;43.08;16.48;;;;;;;3.43;100.00;100539.22;4957641;28;20040;-78
2022/12/08 10:53:28;;;;;;;40.00;16.65;;;;;;;3.58;100.00;100532.91;4949810;28;20039;-77
2022/12/08 10:56:00;;;;;;;37.00;15.18;;;;;;;3.58;100.00;100539.75;4951732;28;20067;-78
2022/12/08 10:58:30;;;;;;;34.53;15.52;;;;;;;3.61;100.00;100531.84;4939977;28;20047;-77
2022/12/08 11:01:04;;;;;;;31.25;14.95;;;;;;;3.55;100.00;100527.19;4946904;28;20098;-77
2022/12/08 11:03:34;;;;;;;36.72;15.30;;;;;;;3.57;100.00;100527.91;4950652;28;20069;-80
2022/12/08 11:06:08;;;;;;;33.92;14.20;;;;;;;3.45;100.00;100519.41;4966023;28;20697;-78
2022/12/08 11:08:45;;;;;;;42.20;16.52;;;;;;;3.48;100.00;100516.59;4951403;28;20067;-79
2022/12/08 11:11:11;;;;;;;36.25;15.32;;;;;;;3.57;100.00;100518.44;4952747;28;20035;-79
2022/12/08 11:13:40;;;;;;;33.70;15.13;;;;;;;3.60;100.00;100514.81;4950331;28;20043;-78
2022/12/08 11:16:06;;;;;;;28.50;14.27;;;;;;;3.63;100.00;100512.03;4952512;28;20126;-78
2022/12/08 11:18:42;;;;;;;33.05;15.10;;;;;;;3.78;100.00;100503.16;4946585;28;20039;-79
2022/12/08 11:21:14;;;;;;;36.13;14.20;;;;;;;3.66;100.00;100509.25;4947667;28;20512;-78
2022/12/08 11:23:42;;;;;;;33.88;14.27;;;;;;;3.56;100.00;100505.75;4952535;28;20075;-78